createdAt,value
2018-05-24T00:01:51.086Z,20.50
2018-05-24T00:04:26.121Z,20.50
2018-05-24T00:07:01.983Z,20.60
2018-05-24T00:09:37.779Z,20.60
2018-05-24T00:12:13.686Z,20.70
2018-05-24T00:14:48.509Z,20.60
2018-05-24T00:17:23.446Z,20.60
2018-05-24T00:19:59.194Z,20.60
2018-05-24T00:22:34.740Z,20.60
2018-05-24T00:25:09.777Z,20.60
2018-05-24T00:27:47.069Z,20.60
2018-05-24T00:30:21.896Z,20.40
2018-05-24T00:32:57.494Z,20.40
2018-05-24T00:35:34.012Z,20.40
2018-05-24T00:38:10.363Z,20.30
2018-05-24T00:40:46.139Z,20.30
2018-05-24T00:43:21.794Z,20.20
2018-05-24T00:45:57.447Z,20.30
2018-05-24T00:48:33.286Z,20.40
2018-05-24T00:51:08.939Z,20.40
2018-05-24T00:53:44.279Z,20.40
2018-05-24T00:56:19.316Z,20.40
2018-05-24T00:58:54.628Z,20.50
2018-05-24T01:01:31.315Z,20.50
2018-05-24T01:04:06.157Z,20.50
2018-05-24T01:06:41.196Z,20.40
2018-05-24T01:09:15.886Z,20.20
2018-05-24T01:11:50.855Z,20.30
2018-05-24T01:14:27.967Z,20.40
2018-05-24T01:17:04.188Z,20.40
2018-05-24T01:19:39.442Z,20.30
2018-05-24T01:22:15.210Z,20.40
2018-05-24T01:24:51.254Z,20.40
2018-05-24T01:27:31.820Z,20.40
2018-05-24T01:30:07.020Z,20.30
2018-05-24T01:32:43.631Z,20.20
2018-05-24T01:35:19.824Z,20.10
2018-05-24T01:37:56.167Z,20.10
2018-05-24T01:40:31.806Z,20.10
2018-05-24T01:43:06.840Z,20.10
2018-05-24T01:45:43.258Z,19.90
2018-05-24T01:48:18.859Z,19.80
2018-05-24T01:50:54.481Z,19.80
2018-05-24T01:53:30.157Z,19.80
2018-05-24T01:56:05.194Z,19.80
2018-05-24T01:58:40.021Z,19.80
2018-05-24T02:01:14.851Z,19.80
2018-05-24T02:03:49.886Z,19.90
2018-05-24T02:06:25.033Z,20.00
2018-05-24T02:09:00.167Z,20.10
2018-05-24T02:11:34.903Z,20.00
2018-05-24T02:14:09.964Z,19.90
2018-05-24T02:16:45.105Z,19.90
2018-05-24T02:19:20.762Z,19.90
2018-05-24T02:21:56.259Z,19.90
2018-05-24T02:24:31.703Z,19.80
2018-05-24T02:27:06.740Z,19.90
2018-05-24T02:29:41.979Z,19.90
2018-05-24T02:32:16.809Z,19.80
2018-05-24T02:34:51.854Z,19.80
2018-05-24T02:37:26.885Z,19.80
2018-05-24T02:40:02.737Z,19.80
2018-05-24T02:42:38.592Z,19.80
2018-05-24T02:45:14.238Z,19.70
2018-05-24T02:47:49.023Z,19.70
2018-05-24T02:50:24.668Z,19.70
2018-05-24T02:52:59.754Z,19.70
2018-05-24T02:55:34.792Z,19.70
2018-05-24T02:58:09.824Z,19.70
2018-05-24T03:00:46.503Z,19.60
2018-05-24T03:03:21.556Z,19.60
2018-05-24T03:05:56.570Z,19.60
2018-05-24T03:08:32.220Z,19.70
2018-05-24T03:11:07.870Z,19.60
2018-05-24T03:13:43.523Z,19.60
2018-05-24T03:16:18.759Z,19.50
2018-05-24T03:18:53.963Z,19.50
2018-05-24T03:21:29.949Z,19.40
2018-05-24T03:24:05.744Z,19.40
2018-05-24T03:26:41.288Z,19.30
2018-05-24T03:29:17.049Z,19.40
2018-05-24T03:31:52.662Z,19.40
2018-05-24T03:34:29.123Z,19.50
2018-05-24T03:37:04.175Z,19.50
2018-05-24T03:39:40.217Z,19.50
2018-05-24T03:42:15.866Z,19.40
2018-05-24T03:44:52.337Z,19.50
2018-05-24T03:47:27.576Z,19.50
2018-05-24T03:50:03.239Z,19.50
2018-05-24T03:52:38.466Z,19.40
2018-05-24T03:55:13.304Z,19.40
2018-05-24T03:57:49.128Z,19.40
2018-05-24T04:00:35.809Z,19.40
2018-05-24T04:03:23.595Z,19.40
2018-05-24T04:05:59.856Z,19.40
2018-05-24T04:08:36.119Z,19.40
2018-05-24T04:11:11.368Z,19.30
2018-05-24T04:13:46.601Z,19.30
2018-05-24T04:16:21.634Z,19.40
2018-05-24T04:18:57.285Z,19.40
2018-05-24T04:21:32.117Z,19.50
2018-05-24T04:24:07.049Z,19.40
2018-05-24T04:26:42.044Z,19.50
2018-05-24T04:29:16.918Z,19.50
2018-05-24T04:31:52.157Z,19.50
2018-05-24T04:34:27.292Z,19.50
2018-05-24T04:37:02.941Z,19.40
2018-05-24T04:39:39.617Z,19.50
2018-05-24T04:42:14.650Z,19.50
2018-05-24T04:44:49.477Z,19.60
2018-05-24T04:47:24.924Z,19.70
2018-05-24T04:50:00.581Z,19.70
2018-05-24T04:52:35.408Z,19.80
2018-05-24T04:55:11.225Z,19.80
2018-05-24T04:57:45.993Z,19.80
2018-05-24T05:00:21.842Z,19.70
2018-05-24T05:02:56.882Z,19.60
2018-05-24T05:05:34.373Z,19.60
2018-05-24T05:08:10.020Z,19.70
2018-05-24T05:10:46.484Z,19.80
2018-05-24T05:13:22.164Z,19.80
2018-05-24T05:15:58.403Z,19.80
2018-05-24T05:18:34.056Z,19.70
2018-05-24T05:21:09.493Z,19.70
2018-05-24T05:23:44.543Z,19.80
2018-05-24T05:26:20.387Z,19.80
2018-05-24T05:28:55.217Z,19.80
2018-05-24T05:31:30.049Z,19.80
2018-05-24T05:34:05.902Z,19.90
2018-05-24T05:36:42.122Z,20.00
2018-05-24T05:39:18.433Z,20.10
2018-05-24T05:41:53.259Z,20.10
2018-05-24T05:44:28.775Z,20.20
2018-05-24T05:47:04.661Z,20.30
2018-05-24T05:49:39.629Z,20.30
2018-05-24T05:52:15.448Z,20.30
2018-05-24T05:54:51.300Z,20.40
2018-05-24T05:57:27.733Z,20.60
2018-05-24T06:00:03.744Z,20.50
2018-05-24T06:02:38.726Z,20.50
2018-05-24T06:05:13.598Z,20.50
2018-05-24T06:07:49.041Z,20.40
2018-05-24T06:10:24.437Z,20.50
2018-05-24T06:13:00.345Z,20.50
2018-05-24T06:15:36.339Z,20.50
2018-05-24T06:18:12.053Z,19.00
2018-05-24T06:20:47.173Z,20.40
2018-05-24T06:23:22.734Z,20.40
2018-05-24T06:25:58.377Z,20.40
2018-05-24T06:28:34.955Z,20.60
2018-05-24T06:31:11.728Z,20.70
2018-05-24T06:33:47.376Z,20.70
2018-05-24T06:36:22.620Z,20.70
2018-05-24T06:38:58.520Z,20.80
2018-05-24T06:41:34.322Z,20.90
2018-05-24T06:44:10.092Z,21.00
2018-05-24T06:46:46.563Z,21.00
2018-05-24T06:49:21.783Z,21.00
2018-05-24T06:51:56.615Z,21.20
2018-05-24T06:54:32.268Z,21.20
2018-05-24T06:57:07.095Z,21.50
2018-05-24T06:59:42.947Z,21.50
2018-05-24T07:02:20.254Z,21.60
2018-05-24T07:04:55.680Z,21.60
2018-05-24T07:07:30.935Z,21.70
2018-05-24T07:10:06.785Z,21.90
2018-05-24T07:12:42.426Z,21.90
2018-05-24T07:15:17.256Z,22.10
2018-05-24T07:17:52.090Z,22.20
2018-05-24T07:20:27.740Z,22.20
2018-05-24T07:23:03.597Z,23.00
2018-05-24T07:25:39.488Z,23.30
2018-05-24T07:28:14.864Z,23.30
2018-05-24T07:30:50.543Z,23.60
2018-05-24T07:33:27.856Z,23.60
2018-05-24T07:36:03.280Z,23.70
2018-05-24T07:38:39.128Z,23.60
2018-05-24T07:41:15.400Z,23.90
2018-05-24T07:43:50.954Z,23.80
2018-05-24T07:46:27.269Z,23.90
2018-05-24T07:49:02.134Z,23.80
2018-05-24T07:51:36.980Z,24.00
2018-05-24T07:54:11.968Z,24.10
2018-05-24T07:56:48.400Z,23.70
2018-05-24T07:59:23.406Z,23.70
2018-05-24T08:01:59.103Z,23.50
2018-05-24T08:04:34.398Z,23.40
2018-05-24T08:07:09.227Z,23.50
2018-05-24T08:09:44.877Z,23.40
2018-05-24T08:12:19.909Z,23.50
2018-05-24T08:14:55.149Z,23.80
2018-05-24T08:17:30.597Z,24.20
2018-05-24T08:20:06.458Z,24.70
2018-05-24T08:22:42.917Z,25.00
2018-05-24T08:25:18.102Z,25.70
2018-05-24T08:27:53.878Z,26.60
2018-05-24T08:30:30.182Z,27.60
2018-05-24T08:33:05.209Z,27.60
2018-05-24T08:35:40.138Z,27.90
2018-05-24T08:40:57.403Z,28.70
2018-05-24T08:43:33.006Z,29.50
2018-05-24T08:46:08.590Z,29.00
2018-05-24T08:48:44.169Z,30.40
2018-05-24T08:51:19.670Z,31.10
2018-05-24T08:53:55.320Z,30.10
2018-05-24T08:56:31.790Z,30.90
2018-05-24T08:59:07.030Z,30.90
2018-05-24T09:01:43.703Z,29.60
2018-05-24T09:04:19.604Z,29.50
2018-05-24T09:06:55.724Z,31.30
2018-05-24T09:09:31.991Z,33.10
2018-05-24T09:12:07.020Z,33.10
2018-05-24T09:14:45.135Z,33.20
2018-05-24T09:17:20.363Z,31.80
2018-05-24T09:19:55.193Z,32.90
2018-05-24T09:22:30.842Z,33.30
2018-05-24T09:25:05.684Z,33.30
2018-05-24T09:27:44.604Z,33.70
2018-05-24T09:30:19.941Z,33.50
2018-05-24T09:32:56.457Z,32.20
2018-05-24T09:35:32.163Z,32.20
2018-05-24T09:38:08.225Z,31.90
2018-05-24T09:40:43.056Z,32.40
2018-05-24T09:43:18.661Z,32.40
2018-05-24T09:45:57.283Z,32.60
2018-05-24T09:48:32.048Z,32.60
2018-05-24T09:51:07.083Z,31.70
2018-05-24T09:53:42.734Z,31.20
2018-05-24T09:56:18.898Z,30.70
2018-05-24T09:58:54.442Z,31.00
2018-05-24T10:01:30.546Z,31.70
2018-05-24T10:04:05.641Z,32.00
2018-05-24T10:06:40.471Z,32.10
2018-05-24T10:09:15.960Z,31.80
2018-05-24T10:11:52.384Z,32.40
2018-05-24T10:14:27.622Z,32.40
2018-05-24T10:17:03.066Z,32.40
2018-05-24T10:19:38.307Z,32.60
2018-05-24T10:22:13.347Z,33.10
2018-05-24T10:24:49.811Z,33.50
2018-05-24T10:27:25.670Z,32.70
2018-05-24T10:30:01.315Z,32.00
2018-05-24T10:32:36.968Z,32.30
2018-05-24T10:35:11.705Z,32.00
2018-05-24T10:37:47.549Z,32.20
2018-05-24T10:40:23.096Z,31.80
2018-05-24T10:42:59.570Z,32.40
2018-05-24T10:45:34.602Z,32.40
2018-05-24T10:48:10.145Z,32.50
2018-05-24T10:50:46.414Z,33.50
2018-05-24T10:53:22.060Z,33.30
2018-05-24T10:55:57.306Z,33.30
2018-05-24T10:58:33.977Z,34.00
2018-05-24T11:01:10.037Z,34.00
2018-05-24T11:03:46.512Z,34.80
2018-05-24T11:06:22.176Z,34.90
2018-05-24T11:08:57.800Z,35.00
2018-05-24T11:11:33.292Z,33.70
2018-05-24T11:14:09.103Z,35.00
2018-05-24T11:16:44.747Z,34.70
2018-05-24T11:19:19.577Z,34.80
2018-05-24T11:21:55.152Z,33.70
2018-05-24T11:24:30.196Z,34.20
2018-05-24T11:27:05.917Z,33.60
2018-05-24T11:29:41.562Z,34.10
2018-05-24T11:32:17.123Z,34.60
2018-05-24T11:34:52.203Z,34.90
2018-05-24T11:37:27.898Z,34.10
2018-05-24T11:40:02.664Z,34.70
2018-05-24T11:42:37.556Z,35.60
2018-05-24T11:45:13.209Z,35.60
2018-05-24T11:47:48.855Z,34.80
2018-05-24T11:50:23.892Z,34.90
2018-05-24T11:52:59.540Z,34.30
2018-05-24T11:55:36.214Z,33.20
2018-05-24T11:58:11.044Z,33.20
2018-05-24T12:00:45.894Z,32.50
2018-05-24T12:03:22.466Z,32.70
2018-05-24T12:05:57.385Z,32.70
2018-05-24T12:08:32.220Z,32.70
2018-05-24T12:11:08.679Z,32.20
2018-05-24T12:13:44.531Z,32.20
2018-05-24T12:16:19.364Z,32.70
2018-05-24T12:18:55.020Z,31.80
2018-05-24T12:21:29.830Z,31.50
2018-05-24T12:24:05.291Z,32.10
2018-05-24T12:26:40.116Z,32.30
2018-05-24T12:29:15.400Z,32.70
2018-05-24T12:31:50.658Z,32.30
2018-05-24T12:34:26.450Z,32.80
2018-05-24T12:37:01.487Z,33.90
2018-05-24T12:39:37.956Z,33.90
2018-05-24T12:42:12.994Z,33.90
2018-05-24T12:44:48.440Z,33.90
2018-05-24T12:47:23.222Z,33.90
2018-05-24T12:49:58.915Z,33.80
2018-05-24T12:52:34.568Z,33.00
2018-05-24T12:55:10.829Z,32.60
2018-05-24T12:57:46.137Z,32.60
2018-05-24T13:00:21.621Z,32.80
2018-05-24T13:02:57.264Z,33.60
2018-05-24T13:05:33.529Z,31.20
2018-05-24T13:08:09.485Z,29.60
2018-05-24T13:10:44.315Z,29.50
2018-05-24T13:13:22.015Z,28.10
2018-05-24T13:15:57.972Z,28.00
2018-05-24T13:18:35.672Z,27.60
2018-05-24T13:21:12.306Z,26.90
2018-05-24T13:23:49.071Z,26.80
2018-05-24T13:26:23.744Z,28.50
2018-05-24T13:28:58.578Z,26.60
2018-05-24T13:31:34.152Z,26.30
2018-05-24T13:34:10.795Z,26.10
2018-05-24T13:36:46.649Z,26.20
2018-05-24T13:39:21.692Z,26.20
2018-05-24T13:41:57.337Z,26.40
2018-05-24T13:44:32.902Z,26.60
2018-05-24T13:47:08.749Z,26.50
2018-05-24T13:49:45.203Z,26.40
2018-05-24T13:52:20.456Z,26.40
2018-05-24T13:54:55.276Z,26.50
2018-05-24T13:57:41.984Z,26.00
2018-05-24T14:00:16.916Z,26.20
2018-05-24T14:02:53.694Z,26.30
2018-05-24T14:05:29.239Z,26.50
2018-05-24T14:08:04.787Z,26.70
2018-05-24T14:10:39.619Z,26.60
2018-05-24T14:13:15.061Z,26.60
2018-05-24T14:15:50.200Z,26.60
2018-05-24T14:18:25.132Z,26.40
2018-05-24T14:21:00.988Z,26.10
2018-05-24T14:23:36.020Z,25.80
2018-05-24T14:26:11.724Z,25.90
2018-05-24T14:28:47.118Z,26.10
2018-05-24T14:31:22.153Z,26.10
2018-05-24T14:33:57.800Z,25.90
2018-05-24T14:36:32.639Z,25.90
2018-05-24T14:39:07.258Z,26.20
2018-05-24T14:41:42.089Z,26.10
2018-05-24T14:44:17.021Z,25.80
2018-05-24T14:46:52.029Z,25.90
2018-05-24T14:49:27.605Z,26.10
2018-05-24T14:52:02.543Z,25.90
2018-05-24T14:54:38.797Z,25.40
2018-05-24T14:57:14.247Z,25.40
2018-05-24T14:59:49.046Z,25.40
2018-05-24T15:02:23.965Z,25.10
2018-05-24T15:04:58.635Z,24.80
2018-05-24T15:07:35.109Z,24.70
2018-05-24T15:10:12.889Z,24.60
2018-05-24T15:12:51.133Z,24.90
2018-05-24T15:15:26.741Z,24.80
2018-05-24T15:18:02.637Z,24.70
2018-05-24T15:20:38.515Z,24.80
2018-05-24T15:23:16.185Z,24.50
2018-05-24T15:25:53.275Z,24.40
2018-05-24T15:28:31.580Z,24.60
2018-05-24T15:31:06.595Z,24.60
2018-05-24T15:33:42.113Z,24.40
2018-05-24T15:36:17.286Z,24.50
2018-05-24T15:38:52.432Z,24.20
2018-05-24T15:41:30.197Z,24.10
2018-05-24T15:44:05.931Z,24.20
2018-05-24T15:46:43.565Z,24.10
2018-05-24T15:49:19.214Z,24.00
2018-05-24T15:51:54.937Z,24.00
2018-05-24T15:54:31.271Z,24.30
2018-05-24T15:57:18.724Z,24.30
2018-05-24T15:59:54.672Z,24.20
2018-05-24T16:02:30.506Z,24.00
2018-05-24T16:05:06.016Z,24.00
2018-05-24T16:07:41.695Z,24.10
2018-05-24T16:10:18.302Z,23.80
2018-05-24T16:12:54.193Z,23.70
2018-05-24T16:15:30.258Z,23.70
2018-05-24T16:18:05.900Z,23.90
2018-05-24T16:20:40.565Z,23.90
2018-05-24T16:23:15.361Z,23.80
2018-05-24T16:25:50.190Z,23.80
2018-05-24T16:28:25.025Z,23.70
2018-05-24T16:31:00.670Z,23.60
2018-05-24T16:33:35.448Z,23.70
2018-05-24T16:36:10.743Z,23.80
2018-05-24T16:38:45.775Z,23.70
2018-05-24T16:41:21.834Z,23.20
2018-05-24T16:43:56.844Z,23.20
2018-05-24T16:46:32.525Z,23.10
2018-05-24T16:49:08.139Z,23.00
2018-05-24T16:51:43.205Z,23.10
2018-05-24T16:54:18.770Z,23.10
2018-05-24T16:56:55.201Z,23.20
2018-05-24T16:59:31.599Z,23.10
2018-05-24T17:02:07.131Z,23.10
2018-05-24T17:04:42.586Z,23.20
2018-05-24T17:07:17.546Z,23.10
2018-05-24T17:09:52.443Z,23.10
2018-05-24T17:12:28.125Z,23.20
2018-05-24T17:15:03.537Z,22.10
2018-05-24T17:17:39.596Z,23.20
2018-05-24T17:20:15.257Z,23.20
2018-05-24T17:22:51.104Z,23.10
2018-05-24T17:25:26.933Z,23.20
2018-05-24T17:28:02.607Z,23.10
2018-05-24T17:30:37.651Z,23.10
2018-05-24T17:33:12.469Z,23.10
2018-05-24T17:35:48.125Z,23.10
2018-05-24T17:38:22.956Z,23.00
2018-05-24T17:40:57.782Z,23.10
2018-05-24T17:43:33.488Z,23.10
2018-05-24T17:46:09.079Z,23.00
2018-05-24T17:48:43.919Z,23.00
2018-05-24T17:51:19.566Z,23.00
2018-05-24T17:53:54.391Z,23.00
2018-05-24T17:56:29.328Z,22.90
2018-05-24T17:59:04.164Z,22.80
2018-05-24T18:01:39.203Z,22.80
2018-05-24T18:04:14.842Z,22.90
2018-05-24T18:06:49.889Z,23.00
2018-05-24T18:09:26.552Z,23.00
2018-05-24T18:12:02.208Z,23.00
2018-05-24T18:14:37.031Z,23.10
2018-05-24T18:17:12.066Z,23.10
2018-05-24T18:19:47.694Z,23.20
2018-05-24T18:22:25.019Z,23.10
2018-05-24T18:24:59.943Z,23.30
2018-05-24T18:27:34.876Z,23.30
2018-05-24T18:30:09.695Z,23.20
2018-05-24T18:32:45.965Z,23.20
2018-05-24T18:35:21.200Z,23.30
2018-05-24T18:38:00.644Z,23.30
2018-05-24T18:40:36.516Z,22.90
2018-05-24T18:43:11.574Z,22.90
2018-05-24T18:45:47.482Z,22.80
2018-05-24T18:48:22.934Z,22.80
2018-05-24T18:50:58.584Z,22.80
2018-05-24T18:53:34.131Z,22.80
2018-05-24T18:56:08.963Z,22.70
2018-05-24T18:58:45.027Z,22.50
2018-05-24T19:01:21.307Z,22.50
2018-05-24T19:03:57.342Z,22.50
2018-05-24T19:06:33.749Z,22.50
2018-05-24T19:09:10.074Z,22.20
2018-05-24T19:11:45.312Z,22.20
2018-05-24T19:14:21.780Z,22.30
2018-05-24T19:16:56.823Z,22.20
2018-05-24T19:19:33.235Z,22.20
2018-05-24T19:22:08.736Z,22.20
2018-05-24T19:24:44.374Z,22.10
2018-05-24T19:27:19.474Z,22.00
2018-05-24T19:29:55.070Z,21.90
2018-05-24T19:32:29.890Z,21.90
2018-05-24T19:35:05.555Z,21.70
2018-05-24T19:37:41.199Z,21.80
2018-05-24T19:40:16.428Z,21.80
2018-05-24T19:42:52.290Z,21.70
2018-05-24T19:45:28.689Z,21.80
2018-05-24T19:48:05.427Z,21.80
2018-05-24T19:50:40.399Z,21.70
2018-05-24T19:53:15.506Z,21.60
2018-05-24T19:55:50.315Z,21.70
2018-05-24T19:58:25.984Z,21.80
2018-05-24T20:01:01.024Z,21.80
2018-05-24T20:03:37.079Z,21.70
2018-05-24T20:06:12.312Z,21.70
2018-05-24T20:08:47.963Z,21.70
2018-05-24T20:11:22.483Z,21.70
2018-05-24T20:13:59.157Z,21.70
2018-05-24T20:16:34.090Z,21.60
2018-05-24T20:19:09.739Z,21.60
2018-05-24T20:21:44.980Z,21.60
2018-05-24T20:24:19.819Z,21.70
2018-05-24T20:26:54.647Z,21.70
2018-05-24T20:29:30.294Z,21.70
2018-05-24T20:32:05.125Z,21.70
2018-05-24T20:34:39.965Z,21.70
2018-05-24T20:37:15.403Z,21.60
2018-05-24T20:39:51.049Z,21.60
2018-05-24T20:42:25.985Z,21.60
2018-05-24T20:45:02.504Z,21.50
2018-05-24T20:47:38.916Z,21.40
2018-05-24T20:50:15.694Z,21.40
2018-05-24T20:52:50.931Z,21.40
2018-05-24T20:55:25.975Z,21.40
2018-05-24T20:58:00.489Z,21.40
2018-05-24T21:00:36.452Z,21.40
2018-05-24T21:03:11.637Z,21.40
2018-05-24T21:05:46.310Z,21.40
2018-05-24T21:08:22.645Z,21.40
2018-05-24T21:10:59.192Z,21.40
2018-05-24T21:13:34.080Z,21.40
2018-05-24T21:16:08.914Z,21.30
2018-05-24T21:18:43.738Z,21.30
2018-05-24T21:21:22.715Z,21.30
2018-05-24T21:23:57.290Z,21.20
2018-05-24T21:26:32.329Z,21.20
2018-05-24T21:29:07.158Z,21.20
2018-05-24T21:31:41.995Z,21.30
2018-05-24T21:34:16.619Z,21.30
2018-05-24T21:36:52.924Z,21.30
2018-05-24T21:39:29.454Z,21.20
2018-05-24T21:42:05.816Z,21.20
2018-05-24T21:44:40.643Z,21.30
2018-05-24T21:47:16.503Z,21.40
2018-05-24T21:49:51.308Z,21.40
2018-05-24T21:52:26.571Z,21.30
2018-05-24T21:55:04.070Z,21.20
2018-05-24T21:57:39.110Z,21.20
2018-05-24T22:00:14.172Z,21.20
2018-05-24T22:02:49.584Z,21.20
2018-05-24T22:05:25.094Z,21.20
2018-05-24T22:08:00.672Z,21.30
2018-05-24T22:10:36.530Z,21.20
2018-05-24T22:13:11.254Z,21.20
2018-05-24T22:15:46.089Z,21.20
2018-05-24T22:18:21.334Z,21.20
2018-05-24T22:20:56.801Z,21.10
2018-05-24T22:23:33.140Z,20.90
2018-05-24T22:26:08.483Z,20.90
2018-05-24T22:28:44.891Z,20.90
2018-05-24T22:31:20.085Z,20.90
2018-05-24T22:33:56.045Z,20.90
2018-05-24T22:36:31.082Z,20.80
2018-05-24T22:39:06.116Z,20.80
2018-05-24T22:41:41.762Z,20.90
2018-05-24T22:44:17.206Z,20.90
2018-05-24T22:46:53.064Z,20.90
2018-05-24T22:49:28.098Z,20.90
2018-05-24T22:52:03.032Z,20.90
2018-05-24T22:54:38.069Z,21.00
2018-05-24T22:57:13.712Z,21.10
2018-05-24T22:59:48.549Z,21.10
2018-05-24T23:02:23.795Z,21.00
2018-05-24T23:05:00.685Z,21.00
2018-05-24T23:07:35.562Z,21.10
2018-05-24T23:10:11.142Z,21.00
2018-05-24T23:12:46.897Z,21.10
2018-05-24T23:15:22.747Z,21.10
2018-05-24T23:17:58.397Z,21.00
2018-05-24T23:20:33.432Z,21.00
2018-05-24T23:23:09.901Z,21.00
2018-05-24T23:25:44.971Z,20.90
2018-05-24T23:28:22.230Z,20.90
2018-05-24T23:30:57.670Z,20.80
2018-05-24T23:33:32.705Z,20.80
2018-05-24T23:36:08.765Z,20.90
2018-05-24T23:38:43.689Z,20.90
2018-05-24T23:41:18.937Z,20.80
2018-05-24T23:43:54.489Z,20.70
2018-05-24T23:46:29.918Z,20.80
2018-05-24T23:49:06.406Z,20.60
2018-05-24T23:51:41.638Z,20.60
2018-05-24T23:54:17.503Z,20.70
2018-05-24T23:56:53.151Z,20.80
2018-05-24T23:59:29.396Z,20.80
